Time;durP1;ratioP1;P1;durP2;ratioP2;P2;SDS_P1;SDS_P2;PMS_P1;PMS_P2;Temp;Humidity;BMP_temperature;BMP_pressure;BME280_temperature;BME280_humidity;BME280_pressure;Samples;Min_cycle;Max_cycle;Signal;HPM_P1;HPM_P2
2022/03/10 00:00:10;;;;;;;4.85;3.35;;;23.50;29.30;;;;;;5005786;28;20030;-51
2022/03/10 00:02:36;;;;;;;4.93;3.30;;;23.50;29.30;;;;;;5005031;28;20033;-49
2022/03/10 00:05:02;;;;;;;4.88;3.05;;;23.40;29.20;;;;;;5004952;28;20543;-51
2022/03/10 00:07:28;;;;;;;5.20;3.47;;;23.40;29.20;;;;;;5005959;28;20088;-50
2022/03/10 00:09:54;;;;;;;5.28;3.22;;;23.40;29.30;;;;;;5005542;28;20022;-51
2022/03/10 00:12:20;;;;;;;5.30;3.30;;;23.40;29.20;;;;;;5020807;28;20496;-51
2022/03/10 00:14:46;;;;;;;5.13;3.25;;;23.40;29.30;;;;;;5005521;28;20045;-50
2022/03/10 00:17:12;;;;;;;4.57;3.03;;;23.40;29.20;;;;;;5005257;28;20037;-51
2022/03/10 00:19:37;;;;;;;4.47;3.05;;;23.40;29.30;;;;;;5005556;28;20378;-51
2022/03/10 00:22:03;;;;;;;4.22;2.70;;;23.30;29.30;;;;;;5005781;28;20032;-50
2022/03/10 00:24:29;;;;;;;5.22;3.00;;;23.30;29.20;;;;;;5004921;28;20034;-51
2022/03/10 00:26:55;;;;;;;4.65;2.92;;;23.30;29.30;;;;;;5005417;28;20441;-50
2022/03/10 00:29:21;;;;;;;4.47;2.75;;;23.30;29.30;;;;;;5020781;28;20028;-49
2022/03/10 00:31:47;;;;;;;3.83;2.50;;;23.30;29.30;;;;;;5004517;28;20080;-49
2022/03/10 00:34:13;;;;;;;4.68;3.17;;;23.30;29.30;;;;;;5005594;28;20030;-49
2022/03/10 00:36:39;;;;;;;5.13;3.20;;;23.30;29.30;;;;;;5004834;28;20090;-48
2022/03/10 00:39:05;;;;;;;4.95;3.30;;;23.30;29.40;;;;;;5004138;28;20034;-50
2022/03/10 00:41:31;;;;;;;4.57;2.90;;;23.30;29.30;;;;;;5005383;28;20033;-48
2022/03/10 00:43:57;;;;;;;5.07;3.28;;;23.20;29.20;;;;;;5005703;28;20466;-50
2022/03/10 00:46:22;;;;;;;4.20;2.60;;;23.20;29.20;;;;;;5005089;28;20046;-50
2022/03/10 00:48:48;;;;;;;4.32;2.70;;;23.20;29.20;;;;;;5005495;28;20034;-50
2022/03/10 00:51:14;;;;;;;4.07;2.58;;;23.20;29.30;;;;;;5005542;28;20026;-49
2022/03/10 00:53:39;;;;;;;4.82;3.17;;;23.20;29.30;;;;;;5005106;28;20061;-51
2022/03/10 00:56:05;;;;;;;4.57;2.90;;;23.20;29.30;;;;;;5005236;28;20536;-50
2022/03/10 00:58:31;;;;;;;4.65;3.05;;;23.20;29.40;;;;;;5005567;28;20076;-51
2022/03/10 01:00:57;;;;;;;5.57;3.05;;;23.20;29.30;;;;;;5004206;28;20038;-50
2022/03/10 01:03:23;;;;;;;4.97;2.92;;;23.10;29.30;;;;;;5004717;28;20373;-51
2022/03/10 01:05:49;;;;;;;4.65;3.30;;;23.10;29.30;;;;;;5003821;28;20038;-50
2022/03/10 01:08:15;;;;;;;4.22;2.80;;;23.10;29.30;;;;;;5020377;28;20040;-50
2022/03/10 01:10:41;;;;;;;3.97;2.70;;;23.10;29.30;;;;;;5004262;28;20104;-51
2022/03/10 01:13:14;;;;;;;4.55;3.05;;;23.10;29.30;;;;;;5004539;28;20454;-51
2022/03/10 01:15:41;;;;;;;4.38;2.78;;;23.10;29.30;;;;;;5004335;28;20073;-50
2022/03/10 01:18:08;;;;;;;4.25;2.70;;;23.10;29.30;;;;;;5004915;28;20034;-49
2022/03/10 01:20:34;;;;;;;4.93;2.80;;;23.10;29.30;;;;;;5005107;28;20022;-49
2022/03/10 01:23:00;;;;;;;4.95;2.70;;;23.10;29.30;;;;;;5004404;28;20037;-50
2022/03/10 01:25:26;;;;;;;4.10;2.75;;;23.00;29.20;;;;;;5004663;28;20072;-50
2022/03/10 01:27:51;;;;;;;4.50;2.88;;;23.00;29.30;;;;;;5004770;28;20765;-51
2022/03/10 01:30:17;;;;;;;4.82;2.80;;;23.00;29.40;;;;;;5004352;28;20525;-50
2022/03/10 01:32:44;;;;;;;4.45;2.67;;;23.00;29.30;;;;;;5004373;28;20061;-50
2022/03/10 01:35:11;;;;;;;4.38;2.75;;;23.00;29.30;;;;;;5003790;28;20030;-51
2022/03/10 01:37:37;;;;;;;4.40;2.53;;;23.00;29.30;;;;;;5019743;28;20677;-48
2022/03/10 01:40:15;;;;;;;4.72;3.03;;;23.00;29.30;;;;;;5004490;28;20119;-49
2022/03/10 01:42:41;;;;;;;5.13;2.53;;;23.00;29.40;;;;;;5004403;28;20034;-51
2022/03/10 01:45:08;;;;;;;4.65;2.92;;;23.00;29.40;;;;;;5003304;28;20500;-49
2022/03/10 01:47:34;;;;;;;5.03;3.17;;;23.00;29.30;;;;;;5004585;28;20034;-49
2022/03/10 01:50:00;;;;;;;4.70;2.85;;;23.00;29.40;;;;;;5006930;28;20105;-49
2022/03/10 01:52:26;;;;;;;4.97;2.67;;;23.00;29.40;;;;;;5008330;28;20041;-50
2022/03/10 01:54:52;;;;;;;3.63;2.25;;;22.90;29.40;;;;;;5006778;28;20022;-50
2022/03/10 01:57:18;;;;;;;4.72;2.95;;;22.90;29.40;;;;;;5007690;28;20057;-51
2022/03/10 01:59:44;;;;;;;4.43;2.67;;;22.90;29.40;;;;;;5008480;28;20030;-50
2022/03/10 02:02:10;;;;;;;4.65;2.97;;;22.90;29.40;;;;;;5007208;28;20280;-49
2022/03/10 02:04:36;;;;;;;4.63;2.88;;;22.90;29.30;;;;;;5006768;28;20034;-50
2022/03/10 02:07:08;;;;;;;5.95;3.53;;;22.90;29.40;;;;;;5007970;28;20077;-49
2022/03/10 02:12:19;;;;;;;4.55;2.47;;;22.90;29.40;;;;;;5008092;28;20041;-49
2022/03/10 02:17:29;;;;;;;4.45;2.67;;;22.80;29.30;;;;;;5007405;28;20026;-49
2022/03/10 02:19:57;;;;;;;4.47;2.90;;;22.80;29.30;;;;;;5006759;28;20060;-50
2022/03/10 02:22:24;;;;;;;4.47;2.75;;;22.80;29.30;;;;;;5007163;28;20034;-50
2022/03/10 02:24:51;;;;;;;4.18;2.97;;;22.80;29.40;;;;;;5007933;28;20030;-50
2022/03/10 02:27:19;;;;;;;4.15;2.70;;;22.80;29.30;;;;;;5007734;28;20126;-50
2022/03/10 02:29:46;;;;;;;4.82;2.95;;;22.80;29.30;;;;;;5008049;28;20022;-50
2022/03/10 02:32:13;;;;;;;4.88;2.88;;;22.80;29.30;;;;;;5007454;28;20028;-51
2022/03/10 02:34:40;;;;;;;4.20;2.60;;;22.80;29.40;;;;;;5007826;28;20105;-50
2022/03/10 02:37:06;;;;;;;4.70;2.92;;;22.80;29.40;;;;;;5008065;28;20033;-50
2022/03/10 02:39:33;;;;;;;4.15;2.60;;;22.80;30.00;;;;;;5007991;28;20025;-51
2022/03/10 02:41:58;;;;;;;4.90;2.88;;;22.80;29.40;;;;;;5007717;28;20530;-50
2022/03/10 02:44:24;;;;;;;4.30;2.60;;;22.80;29.40;;;;;;5007755;28;20105;-50
2022/03/10 02:46:51;;;;;;;3.97;2.60;;;22.80;29.30;;;;;;5007324;28;20537;-50
2022/03/10 02:49:17;;;;;;;4.35;2.53;;;22.70;29.40;;;;;;5006727;28;20061;-50
2022/03/10 02:51:43;;;;;;;3.58;2.38;;;22.70;29.40;;;;;;5022726;28;20077;-47
2022/03/10 02:54:09;;;;;;;4.32;2.70;;;22.70;29.40;;;;;;5005420;28;20625;-51
2022/03/10 02:56:35;;;;;;;4.53;2.92;;;22.70;29.40;;;;;;5007375;28;20030;-50
2022/03/10 02:59:01;;;;;;;5.35;2.97;;;22.70;29.40;;;;;;5005343;28;20107;-49
2022/03/10 03:01:26;;;;;;;3.70;2.33;;;22.70;29.40;;;;;;5004575;28;20045;-49
2022/03/10 03:03:53;;;;;;;4.13;2.80;;;22.70;29.40;;;;;;5005712;28;20038;-49
2022/03/10 03:06:19;;;;;;;4.88;2.80;;;22.70;29.50;;;;;;5007696;28;20022;-51
2022/03/10 03:08:45;;;;;;;3.75;2.50;;;22.70;29.40;;;;;;5005865;28;20444;-50
2022/03/10 03:11:11;;;;;;;4.57;2.95;;;22.60;29.40;;;;;;5006935;28;20034;-50
2022/03/10 03:13:36;;;;;;;4.57;2.85;;;22.60;29.40;;;;;;5005701;28;20033;-50
2022/03/10 03:16:02;;;;;;;4.05;2.63;;;22.60;29.40;;;;;;5006659;28;20521;-50
2022/03/10 03:18:28;;;;;;;4.55;2.97;;;22.60;29.40;;;;;;5007248;28;20112;-49
2022/03/10 03:20:54;;;;;;;4.40;2.70;;;22.60;29.40;;;;;;5006816;28;20058;-50
2022/03/10 03:23:19;;;;;;;3.53;2.17;;;22.60;29.40;;;;;;5006792;28;20030;-50
2022/03/10 03:25:45;;;;;;;4.43;2.83;;;22.60;29.30;;;;;;5006337;28;20030;-49
2022/03/10 03:28:11;;;;;;;3.90;2.55;;;22.60;29.40;;;;;;5006805;28;20034;-49
2022/03/10 03:30:36;;;;;;;4.05;2.70;;;22.60;29.40;;;;;;5006389;28;20057;-50
2022/03/10 03:33:02;;;;;;;4.30;3.00;;;22.60;29.40;;;;;;5006920;28;20041;-49
2022/03/10 03:35:28;;;;;;;3.80;2.60;;;22.60;29.50;;;;;;5006646;28;20022;-50
2022/03/10 03:37:54;;;;;;;4.15;2.42;;;22.60;29.50;;;;;;5007112;28;20022;-51
2022/03/10 03:40:19;;;;;;;4.45;2.78;;;22.60;29.40;;;;;;5006262;28;20097;-51
2022/03/10 03:42:45;;;;;;;4.32;2.45;;;22.50;29.40;;;;;;5006599;28;20473;-50
2022/03/10 03:45:11;;;;;;;5.90;3.10;;;22.50;29.40;;;;;;5006310;28;20026;-50
2022/03/10 03:47:37;;;;;;;4.32;2.83;;;22.50;29.50;;;;;;5006125;28;20038;-49
2022/03/10 03:50:04;;;;;;;4.40;2.70;;;22.60;29.50;;;;;;5006028;28;20037;-50
2022/03/10 03:52:30;;;;;;;4.35;2.90;;;22.50;29.50;;;;;;5005925;28;20535;-49
2022/03/10 03:54:56;;;;;;;4.57;3.08;;;22.50;29.50;;;;;;5005683;28;20030;-51
2022/03/10 03:57:21;;;;;;;3.70;2.38;;;22.50;29.50;;;;;;5021290;28;20026;-49
2022/03/10 03:59:47;;;;;;;4.32;2.63;;;22.50;29.50;;;;;;5006599;28;20033;-49
2022/03/10 04:02:13;;;;;;;3.80;2.40;;;22.50;29.50;;;;;;5005224;28;20029;-49
2022/03/10 04:04:38;;;;;;;4.72;2.75;;;22.50;29.50;;;;;;5005638;28;20021;-49
2022/03/10 04:07:04;;;;;;;4.07;2.70;;;22.50;29.50;;;;;;5004852;28;20025;-49
2022/03/10 04:09:30;;;;;;;4.28;2.70;;;22.50;29.50;;;;;;5005083;28;20029;-49
2022/03/10 04:11:56;;;;;;;4.15;2.47;;;22.50;29.50;;;;;;5003582;28;20025;-50
2022/03/10 04:14:21;;;;;;;5.32;2.97;;;22.50;29.50;;;;;;5005439;28;20408;-48
2022/03/10 04:16:47;;;;;;;3.83;2.25;;;22.40;29.40;;;;;;5005212;28;20113;-49
2022/03/10 04:19:13;;;;;;;3.75;2.38;;;22.40;29.40;;;;;;5005783;28;20018;-51
2022/03/10 04:21:38;;;;;;;4.40;3.03;;;22.40;29.50;;;;;;5005082;28;20045;-50
2022/03/10 04:24:04;;;;;;;4.78;3.10;;;22.40;29.50;;;;;;5005400;28;20033;-49
2022/03/10 04:26:30;;;;;;;4.95;2.95;;;22.40;29.50;;;;;;5005298;28;20565;-50
2022/03/10 04:28:56;;;;;;;4.05;2.67;;;22.40;29.50;;;;;;5004404;28;20029;-50
2022/03/10 04:31:23;;;;;;;4.10;2.63;;;22.40;29.40;;;;;;5004348;28;20452;-49
2022/03/10 04:33:49;;;;;;;4.30;2.75;;;22.40;29.50;;;;;;5005457;28;20026;-50
2022/03/10 04:36:15;;;;;;;4.25;2.65;;;22.40;29.50;;;;;;5005623;28;20108;-51
2022/03/10 04:38:40;;;;;;;4.18;2.72;;;22.40;29.50;;;;;;5005810;28;20058;-50
2022/03/10 04:41:06;;;;;;;4.00;2.60;;;22.40;30.20;;;;;;5004241;28;20446;-50
2022/03/10 04:43:32;;;;;;;4.10;2.38;;;22.40;29.50;;;;;;5005602;28;20037;-50
2022/03/10 04:45:59;;;;;;;4.57;2.97;;;22.40;29.50;;;;;;5005322;28;20029;-51
2022/03/10 04:48:25;;;;;;;4.22;2.70;;;22.40;30.20;;;;;;5004308;28;20037;-49
2022/03/10 04:50:51;;;;;;;4.53;2.90;;;22.40;29.60;;;;;;5005471;28;20034;-48
2022/03/10 04:53:17;;;;;;;3.92;2.58;;;22.40;29.50;;;;;;5003381;28;20021;-49
2022/03/10 04:55:43;;;;;;;3.97;2.55;;;22.40;29.60;;;;;;5005293;28;20037;-50
2022/03/10 04:58:08;;;;;;;3.70;2.50;;;22.40;29.60;;;;;;5005386;28;20132;-51
2022/03/10 05:00:34;;;;;;;4.03;2.47;;;22.40;29.50;;;;;;5005219;28;20045;-50
2022/03/10 05:03:00;;;;;;;4.00;2.55;;;22.30;29.50;;;;;;5005146;28;20486;-49
2022/03/10 05:05:26;;;;;;;4.43;3.05;;;22.30;29.50;;;;;;5005195;28;20101;-51
2022/03/10 05:07:52;;;;;;;4.10;2.75;;;22.30;29.50;;;;;;5003373;28;20049;-50
2022/03/10 05:10:18;;;;;;;4.28;2.72;;;22.30;29.60;;;;;;5004877;28;20061;-51
2022/03/10 05:12:53;;;;;;;4.20;2.55;;;22.30;29.60;;;;;;5004801;28;20223;-49
2022/03/10 05:15:21;;;;;;;4.38;2.58;;;22.30;29.60;;;;;;5004109;28;20022;-51
2022/03/10 05:17:47;;;;;;;4.68;2.78;;;22.30;29.70;;;;;;5003036;28;20029;-50
2022/03/10 05:20:13;;;;;;;4.57;2.80;;;22.30;29.70;;;;;;5004709;28;20037;-50
2022/03/10 05:22:46;;;;;;;4.40;2.90;;;22.30;29.80;;;;;;5004726;28;20033;-52
2022/03/10 05:25:14;;;;;;;4.93;3.25;;;22.30;29.90;;;;;;5007994;28;20579;-51
2022/03/10 05:27:40;;;;;;;4.20;2.67;;;22.30;29.90;;;;;;5008814;28;20094;-51
2022/03/10 05:30:06;;;;;;;4.45;2.60;;;22.30;30.00;;;;;;5009123;28;20025;-51
2022/03/10 05:32:31;;;;;;;4.00;2.40;;;22.40;30.00;;;;;;5008696;28;20109;-51
2022/03/10 05:34:57;;;;;;;4.70;2.80;;;22.40;30.00;;;;;;5008478;28;20109;-50
2022/03/10 05:37:24;;;;;;;4.07;2.50;;;22.40;30.00;;;;;;5007364;28;20638;-50
2022/03/10 05:39:50;;;;;;;3.90;2.50;;;22.50;30.10;;;;;;5007425;28;20489;-50
2022/03/10 05:42:16;;;;;;;3.83;2.33;;;22.60;30.00;;;;;;5008200;28;20108;-51
2022/03/10 05:44:42;;;;;;;4.03;2.28;;;22.60;30.00;;;;;;5007184;28;20022;-51
2022/03/10 05:47:09;;;;;;;4.10;2.47;;;22.70;30.10;;;;;;5007633;28;20018;-49
2022/03/10 05:49:36;;;;;;;4.22;2.53;;;22.70;30.00;;;;;;5008039;28;20095;-50
2022/03/10 05:52:02;;;;;;;3.83;2.28;;;22.80;29.90;;;;;;5008213;28;20044;-50
2022/03/10 05:54:28;;;;;;;3.72;2.20;;;22.90;29.90;;;;;;5007054;28;20041;-50
2022/03/10 05:56:54;;;;;;;4.13;2.45;;;23.00;29.80;;;;;;5007618;28;20042;-50
2022/03/10 05:59:20;;;;;;;3.97;2.35;;;23.00;29.70;;;;;;5008454;28;20029;-50
2022/03/10 06:01:46;;;;;;;3.97;2.42;;;23.10;29.80;;;;;;5006209;28;20029;-49
2022/03/10 06:04:12;;;;;;;3.90;2.47;;;23.20;29.60;;;;;;5006774;28;20493;-50
2022/03/10 06:06:38;;;;;;;3.90;2.25;;;23.30;29.60;;;;;;5007575;28;20022;-50
2022/03/10 06:09:04;;;;;;;4.32;2.70;;;23.30;29.60;;;;;;5006603;28;20026;-51
2022/03/10 06:11:30;;;;;;;4.00;2.45;;;23.40;29.50;;;;;;5007303;28;20057;-50
2022/03/10 06:13:56;;;;;;;3.60;2.10;;;23.50;29.50;;;;;;5006591;28;20111;-49
2022/03/10 06:16:22;;;;;;;4.00;2.40;;;23.50;29.40;;;;;;5007130;28;20057;-50
2022/03/10 06:18:47;;;;;;;3.83;2.15;;;23.60;29.40;;;;;;5007032;28;20567;-49
2022/03/10 06:21:13;;;;;;;4.53;2.28;;;23.60;29.50;;;;;;5007023;28;20045;-49
2022/03/10 06:23:39;;;;;;;5.80;2.97;;;23.70;29.50;;;;;;5005416;28;20037;-49
2022/03/10 06:26:04;;;;;;;5.18;2.60;;;23.80;29.40;;;;;;5004879;28;20026;-49
2022/03/10 06:28:31;;;;;;;4.50;2.55;;;23.80;29.20;;;;;;5007956;28;20093;-49
2022/03/10 06:30:57;;;;;;;4.15;2.40;;;23.90;29.20;;;;;;5004891;28;20073;-50
2022/03/10 06:33:23;;;;;;;3.90;2.25;;;23.90;29.20;;;;;;5006918;28;20568;-50
2022/03/10 06:35:48;;;;;;;3.65;2.40;;;24.00;29.10;;;;;;5004264;28;20026;-49
2022/03/10 06:38:14;;;;;;;4.10;2.58;;;24.10;29.10;;;;;;5006464;28;20029;-49
2022/03/10 06:40:40;;;;;;;3.70;2.22;;;24.10;29.00;;;;;;5006822;28;20036;-49
2022/03/10 06:43:06;;;;;;;3.47;2.22;;;24.20;29.00;;;;;;5006641;28;20630;-49
2022/03/10 06:45:32;;;;;;;4.40;2.72;;;24.20;28.90;;;;;;5007810;28;20049;-49
2022/03/10 06:47:58;;;;;;;3.92;2.40;;;24.30;28.90;;;;;;5006659;28;20116;-49
2022/03/10 06:50:24;;;;;;;4.00;2.30;;;24.30;28.80;;;;;;5007528;28;20270;-49
2022/03/10 06:52:52;;;;;;;3.75;2.38;;;24.40;28.80;;;;;;5006823;28;20026;-48
2022/03/10 06:55:19;;;;;;;3.50;2.40;;;24.50;28.80;;;;;;5005686;28;20503;-51
2022/03/10 06:57:46;;;;;;;4.13;2.42;;;24.50;28.70;;;;;;5006142;28;20118;-49
2022/03/10 07:00:13;;;;;;;4.05;2.47;;;24.50;28.70;;;;;;5004112;28;20030;-50
2022/03/10 07:02:39;;;;;;;4.40;2.22;;;24.60;28.60;;;;;;5006171;28;20573;-49
2022/03/10 07:05:07;;;;;;;4.65;2.40;;;24.70;28.80;;;;;;5021898;28;20033;-49
2022/03/10 07:07:33;;;;;;;3.83;2.42;;;24.70;28.60;;;;;;5006599;28;20038;-49
2022/03/10 07:09:58;;;;;;;5.63;2.20;;;24.70;28.50;;;;;;5006450;28;20029;-49
2022/03/10 07:12:27;;;;;;;4.28;2.28;;;24.70;28.40;;;;;;5006838;28;20160;-49
2022/03/10 07:14:53;;;;;;;4.35;2.90;;;24.80;29.10;;;;;;5006097;28;20026;-50
2022/03/10 07:17:19;;;;;;;3.88;2.42;;;24.80;28.30;;;;;;5006093;28;20468;-49
2022/03/10 07:19:45;;;;;;;3.88;2.40;;;24.80;28.20;;;;;;5007240;28;20045;-50
2022/03/10 07:22:16;;;;;;;4.15;2.50;;;24.90;28.30;;;;;;5041570;28;20033;-48
2022/03/10 07:24:42;;;;;;;4.20;2.47;;;24.90;29.00;;;;;;5013584;28;20021;-50
2022/03/10 07:27:08;;;;;;;4.20;2.60;;;24.90;28.20;;;;;;5005633;28;20550;-49
2022/03/10 07:29:33;;;;;;;3.95;2.50;;;25.00;28.30;;;;;;5005832;28;20026;-50
2022/03/10 07:31:59;;;;;;;4.40;2.88;;;25.00;28.10;;;;;;5005545;28;20026;-49
2022/03/10 07:34:25;;;;;;;3.92;2.47;;;25.00;28.10;;;;;;5005079;28;20030;-51
2022/03/10 07:36:50;;;;;;;4.22;2.50;;;25.00;28.00;;;;;;5005439;28;20366;-50
2022/03/10 07:39:16;;;;;;;3.97;2.25;;;25.00;28.00;;;;;;5005360;28;20026;-49
2022/03/10 07:41:42;;;;;;;4.40;2.83;;;25.00;27.90;;;;;;5005188;28;20052;-48
2022/03/10 07:44:08;;;;;;;4.53;2.70;;;25.00;27.90;;;;;;5004241;28;20030;-50
2022/03/10 07:46:34;;;;;;;4.43;2.40;;;25.10;28.00;;;;;;5004916;28;20038;-48
2022/03/10 07:49:00;;;;;;;4.10;2.53;;;25.10;28.00;;;;;;5005015;28;20189;-50
2022/03/10 07:51:26;;;;;;;4.13;2.67;;;25.10;28.10;;;;;;5005243;28;20033;-51
2022/03/10 07:53:51;;;;;;;4.63;2.80;;;25.10;28.20;;;;;;5005042;28;20050;-50
2022/03/10 07:56:17;;;;;;;4.35;2.97;;;25.10;28.20;;;;;;5005928;28;20030;-50
2022/03/10 07:58:43;;;;;;;4.72;2.80;;;25.20;28.30;;;;;;5004831;28;20048;-51
2022/03/10 08:01:09;;;;;;;4.50;2.80;;;25.20;28.20;;;;;;5005754;28;20106;-49
2022/03/10 08:03:38;;;;;;;5.35;3.08;;;25.20;28.20;;;;;;5002991;28;20029;-49
2022/03/10 08:06:05;;;;;;;4.72;2.78;;;25.20;28.20;;;;;;5005727;28;20022;-48
2022/03/10 08:08:30;;;;;;;4.55;2.65;;;25.20;28.20;;;;;;5005939;28;20705;-51
2022/03/10 08:10:56;;;;;;;4.60;2.55;;;25.20;28.10;;;;;;5006003;28;20033;-50
2022/03/10 08:13:26;;;;;;;4.13;2.50;;;25.20;28.10;;;;;;5005800;28;20037;-51
2022/03/10 08:15:53;;;;;;;3.83;2.42;;;25.20;28.10;;;;;;5005529;28;20215;-49
2022/03/10 08:18:20;;;;;;;5.63;3.10;;;25.30;28.00;;;;;;5004250;28;20057;-50
2022/03/10 08:20:46;;;;;;;5.43;2.97;;;25.30;28.00;;;;;;5005479;28;20034;-50
2022/03/10 08:23:12;;;;;;;4.15;2.60;;;25.30;28.00;;;;;;5003632;28;20034;-49
2022/03/10 08:25:38;;;;;;;5.55;3.13;;;25.30;27.90;;;;;;5005763;28;20764;-50
2022/03/10 08:28:06;;;;;;;4.70;2.58;;;25.30;27.90;;;;;;5005040;28;20034;-50
2022/03/10 08:30:32;;;;;;;4.97;3.15;;;25.30;27.90;;;;;;5020934;28;20571;-50
2022/03/10 08:32:58;;;;;;;4.32;2.38;;;25.30;27.80;;;;;;5004520;28;20053;-47
2022/03/10 08:35:24;;;;;;;4.78;2.55;;;25.40;27.90;;;;;;5004434;28;20112;-50
2022/03/10 08:37:50;;;;;;;4.50;2.65;;;25.40;27.80;;;;;;5005140;28;20030;-49
2022/03/10 08:40:18;;;;;;;4.40;2.35;;;25.40;27.80;;;;;;5005482;28;20034;-51
2022/03/10 08:42:45;;;;;;;4.07;2.42;;;25.40;27.80;;;;;;5004833;28;20457;-50
2022/03/10 08:45:11;;;;;;;5.35;3.00;;;25.40;27.80;;;;;;5004496;28;20030;-49
2022/03/10 08:47:36;;;;;;;4.93;2.63;;;25.40;27.70;;;;;;5004800;28;20037;-50
2022/03/10 08:50:03;;;;;;;4.05;2.55;;;25.40;27.70;;;;;;5005302;28;20092;-49
2022/03/10 08:52:29;;;;;;;5.82;2.80;;;25.40;27.70;;;;;;5005618;28;20026;-48
2022/03/10 08:54:54;;;;;;;4.68;2.35;;;25.40;27.70;;;;;;5000278;28;20141;-50
2022/03/10 08:57:21;;;;;;;4.65;2.90;;;25.40;27.70;;;;;;5004904;28;20034;-50
2022/03/10 08:59:46;;;;;;;4.70;2.65;;;25.40;27.60;;;;;;4996775;28;20134;-50
2022/03/10 09:02:12;;;;;;;4.85;2.83;;;25.40;27.60;;;;;;5006528;28;20121;-51
2022/03/10 09:04:39;;;;;;;3.45;2.17;;;25.40;27.60;;;;;;5004803;28;20032;-50
2022/03/10 09:07:05;;;;;;;5.32;2.72;;;25.40;27.60;;;;;;5004697;28;20049;-49
2022/03/10 09:09:31;;;;;;;4.53;2.67;;;25.40;27.60;;;;;;5004758;28;20104;-50
2022/03/10 09:11:57;;;;;;;4.50;2.75;;;25.40;27.60;;;;;;5005038;28;20022;-49
2022/03/10 09:14:23;;;;;;;4.18;2.28;;;25.50;27.60;;;;;;5004576;28;20436;-50
2022/03/10 09:16:51;;;;;;;5.90;2.97;;;25.50;27.50;;;;;;5004276;28;20022;-49
2022/03/10 09:19:17;;;;;;;4.10;2.38;;;25.40;27.50;;;;;;5004984;28;20042;-50
2022/03/10 09:21:43;;;;;;;4.93;2.67;;;25.40;27.50;;;;;;5005173;28;20034;-51
2022/03/10 09:24:09;;;;;;;3.85;2.42;;;25.40;27.60;;;;;;5004340;28;20038;-50
2022/03/10 09:26:35;;;;;;;4.45;2.55;;;25.40;27.50;;;;;;5004872;28;20026;-51
2022/03/10 09:29:01;;;;;;;4.03;2.25;;;25.40;27.50;;;;;;5004396;28;20030;-49
2022/03/10 09:31:27;;;;;;;5.18;2.75;;;25.40;27.50;;;;;;5005043;28;20138;-50
2022/03/10 09:33:53;;;;;;;4.47;2.40;;;25.40;27.50;;;;;;5004521;28;20452;-49
2022/03/10 09:36:19;;;;;;;4.10;2.22;;;25.50;27.40;;;;;;5003361;28;20029;-50
2022/03/10 09:38:45;;;;;;;4.70;2.38;;;25.50;27.40;;;;;;5003660;28;20030;-50
2022/03/10 09:41:12;;;;;;;4.70;2.67;;;25.50;27.40;;;;;;5004640;28;20026;-50
2022/03/10 09:43:38;;;;;;;4.85;2.60;;;25.50;27.40;;;;;;5004434;28;20030;-49
2022/03/10 09:46:05;;;;;;;5.03;2.75;;;25.50;27.40;;;;;;5003974;28;20119;-48
2022/03/10 09:48:30;;;;;;;5.28;2.92;;;25.50;27.40;;;;;;4996019;28;20458;-48
2022/03/10 09:50:56;;;;;;;4.95;2.63;;;25.50;27.40;;;;;;4984980;28;20080;-51
2022/03/10 09:53:22;;;;;;;4.97;2.70;;;25.50;27.40;;;;;;4985279;28;20085;-51
2022/03/10 09:55:48;;;;;;;4.50;2.92;;;25.50;27.40;;;;;;4985239;28;20274;-48
2022/03/10 09:58:14;;;;;;;4.53;2.72;;;25.50;27.30;;;;;;4985025;28;20042;-50
2022/03/10 10:00:39;;;;;;;4.72;2.42;;;25.60;27.30;;;;;;4984787;28;20026;-49
2022/03/10 10:03:05;;;;;;;5.03;3.00;;;25.50;27.30;;;;;;4996664;28;20037;-50
2022/03/10 10:05:33;;;;;;;5.20;2.80;;;25.50;27.30;;;;;;5004712;28;20069;-50
2022/03/10 10:08:08;;;;;;;4.60;2.85;;;25.60;27.30;;;;;;5004323;28;20690;-50
2022/03/10 10:10:39;;;;;;;5.65;2.97;;;25.50;27.30;;;;;;5006952;28;20026;-50
2022/03/10 10:13:06;;;;;;;6.22;2.97;;;25.60;27.30;;;;;;5007368;28;20064;-50
2022/03/10 10:15:40;;;;;;;6.28;2.42;;;25.60;27.30;;;;;;5023280;28;20216;-50
2022/03/10 10:18:14;;;;;;;5.80;3.30;;;25.60;27.30;;;;;;5007609;28;20096;-50
2022/03/10 10:20:47;;;;;;;4.85;2.58;;;25.60;27.20;;;;;;5008161;28;20096;-50
2022/03/10 10:23:33;;;;;;;4.80;2.65;;;25.60;27.30;;;;;;5007673;28;20128;-50
2022/03/10 10:26:00;;;;;;;5.35;3.08;;;25.60;27.30;;;;;;5007528;28;20034;-48
2022/03/10 10:28:31;;;;;;;4.68;2.42;;;25.60;27.20;;;;;;5007953;28;20368;-50
2022/03/10 10:30:57;;;;;;;5.97;3.28;;;25.60;27.20;;;;;;5007786;28;20084;-51
2022/03/10 10:33:23;;;;;;;4.32;2.65;;;25.60;27.20;;;;;;5007187;28;20038;-52
2022/03/10 10:35:49;;;;;;;4.97;2.97;;;25.60;27.20;;;;;;5006264;28;20030;-50
2022/03/10 10:38:31;;;;;;;4.57;2.67;;;25.60;27.20;;;;;;5007557;28;20038;-50
2022/03/10 10:41:17;;;;;;;5.68;2.85;;;25.60;27.20;;;;;;5006311;28;20125;-51
2022/03/10 10:43:46;;;;;;;4.47;2.65;;;25.60;27.20;;;;;;5007356;28;20576;-50
2022/03/10 10:46:26;;;;;;;5.50;2.80;;;25.60;27.20;;;;;;5007355;28;20049;-51
2022/03/10 10:48:52;;;;;;;4.80;2.80;;;25.60;27.20;;;;;;4995162;28;20062;-50
2022/03/10 10:51:30;;;;;;;5.78;2.70;;;25.60;27.20;;;;;;4987615;28;20026;-50
2022/03/10 10:53:57;;;;;;;4.43;2.33;;;25.60;27.20;;;;;;5002352;28;20065;-50
2022/03/10 10:56:23;;;;;;;5.22;3.10;;;25.60;27.20;;;;;;4988011;28;20492;-49
2022/03/10 10:58:52;;;;;;;7.43;3.10;;;25.70;27.20;;;;;;4987912;28;20034;-50
2022/03/10 11:01:33;;;;;;;5.93;2.80;;;25.60;27.20;;;;;;4987640;28;20121;-50
2022/03/10 11:03:59;;;;;;;4.57;2.78;;;25.70;27.20;;;;;;5019852;28;20040;-50
2022/03/10 11:06:25;;;;;;;5.72;2.60;;;25.70;27.10;;;;;;5007057;28;20091;-49
2022/03/10 11:08:52;;;;;;;6.32;3.10;;;25.60;27.20;;;;;;5007215;28;20076;-50
2022/03/10 11:11:20;;;;;;;5.20;2.60;;;25.70;27.10;;;;;;5021473;28;20038;-49
2022/03/10 11:13:47;;;;;;;4.13;2.33;;;25.60;27.10;;;;;;5006913;28;20585;-49
2022/03/10 11:16:15;;;;;;;7.55;3.28;;;25.60;27.20;;;;;;5022006;28;20060;-50
2022/03/10 11:18:44;;;;;;;5.00;2.70;;;25.60;27.10;;;;;;5006637;28;20287;-50
2022/03/10 11:21:25;;;;;;;6.15;2.97;;;25.60;27.10;;;;;;5006001;28;20042;-51
2022/03/10 11:23:59;;;;;;;5.05;2.75;;;25.60;27.10;;;;;;5006684;28;20669;-49
2022/03/10 11:26:37;;;;;;;5.65;2.65;;;25.60;27.10;;;;;;5006197;28;20053;-50
2022/03/10 11:29:05;;;;;;;3.40;2.15;;;25.60;27.10;;;;;;5006559;28;20057;-51
2022/03/10 11:31:34;;;;;;;6.18;2.78;;;25.60;27.10;;;;;;5006270;28;20049;-51
2022/03/10 11:33:59;;;;;;;6.13;3.10;;;25.60;27.00;;;;;;5005114;28;20025;-50
2022/03/10 11:36:27;;;;;;;4.20;2.88;;;25.60;27.10;;;;;;5006529;28;20083;-49
2022/03/10 11:38:59;;;;;;;4.38;2.50;;;25.60;27.10;;;;;;5005368;28;20026;-50
2022/03/10 11:41:27;;;;;;;4.88;2.75;;;25.60;27.10;;;;;;5006446;28;20425;-51
2022/03/10 11:44:00;;;;;;;5.47;3.00;;;25.60;27.10;;;;;;5006021;28;20022;-50
2022/03/10 11:46:30;;;;;;;5.00;2.95;;;25.60;27.10;;;;;;5005932;28;20055;-50
2022/03/10 11:49:00;;;;;;;4.68;2.53;;;25.60;27.00;;;;;;5002827;28;20080;-50
2022/03/10 11:51:50;;;;;;;4.43;2.42;;;25.60;27.10;;;;;;5006137;28;20579;-51
2022/03/10 11:54:23;;;;;;;4.75;2.88;;;25.60;27.10;;;;;;5005850;28;20065;-50
2022/03/10 11:56:50;;;;;;;4.47;2.58;;;25.60;27.10;;;;;;5021034;28;20350;-49
2022/03/10 11:59:37;;;;;;;4.05;2.47;;;25.60;27.10;;;;;;5006226;28;20742;-49
2022/03/10 12:02:04;;;;;;;4.38;2.55;;;25.60;27.80;;;;;;5020436;28;20429;-50
2022/03/10 12:04:42;;;;;;;5.30;2.70;;;25.60;27.10;;;;;;5006042;28;20084;-51
2022/03/10 12:07:17;;;;;;;4.40;2.40;;;25.60;27.10;;;;;;5005651;28;20030;-49
2022/03/10 12:10:08;;;;;;;4.10;2.47;;;25.60;27.10;;;;;;5006051;28;20398;-48
2022/03/10 12:12:38;;;;;;;4.70;2.90;;;25.60;27.10;;;;;;5005533;28;20061;-50
2022/03/10 12:15:36;;;;;;;4.70;2.58;;;25.60;27.00;;;;;;5005586;28;20410;-49
2022/03/10 12:18:17;;;;;;;4.18;2.58;;;25.60;27.10;;;;;;5003273;28;20509;-49
2022/03/10 12:20:44;;;;;;;4.03;2.58;;;25.60;27.10;;;;;;5005704;28;20049;-49
2022/03/10 12:23:15;;;;;;;4.45;2.78;;;25.70;27.10;;;;;;5005310;28;20034;-50
2022/03/10 12:25:42;;;;;;;5.25;2.63;;;25.70;27.20;;;;;;5005838;28;20658;-49
2022/03/10 12:28:09;;;;;;;4.75;2.80;;;25.70;27.10;;;;;;5005465;28;20034;-49
2022/03/10 12:30:44;;;;;;;4.95;2.85;;;25.70;27.10;;;;;;5005624;28;20021;-50
2022/03/10 12:33:10;;;;;;;4.10;2.45;;;25.70;27.10;;;;;;5004245;28;20034;-47
2022/03/10 12:35:38;;;;;;;4.05;2.15;;;25.70;27.00;;;;;;5004031;28;20026;-49
2022/03/10 12:38:05;;;;;;;3.50;2.33;;;25.70;27.00;;;;;;5005400;28;20073;-50
2022/03/10 12:40:34;;;;;;;3.30;1.77;;;25.70;27.00;;;;;;5005589;28;20386;-49
2022/03/10 12:43:05;;;;;;;3.97;2.33;;;25.70;27.00;;;;;;5005494;28;20570;-49
2022/03/10 12:45:31;;;;;;;4.15;2.10;;;25.80;26.90;;;;;;5005224;28;20440;-50
2022/03/10 12:48:15;;;;;;;4.20;2.08;;;25.80;26.80;;;;;;5005026;28;20033;-50
2022/03/10 12:50:45;;;;;;;3.85;2.08;;;25.80;26.80;;;;;;5004138;28;20026;-50
2022/03/10 12:53:15;;;;;;;3.47;2.05;;;25.80;26.70;;;;;;5005330;28;20032;-50